Time;durP1;ratioP1;P1;durP2;ratioP2;P2;SDS_P1;SDS_P2;PMS_P1;PMS_P2;Temp;Humidity;BMP_temperature;BMP_pressure;BME280_temperature;BME280_humidity;BME280_pressure;Samples;Min_cycle;Max_cycle;Signal;HPM_P1;HPM_P2
2021/07/17 02:07:23;;;;;;;26.25;10.68;;;17.50;99.90;;;18.94;89.88;101351.72;6282468;22;20034;-88
2021/07/17 02:09:49;;;;;;;24.45;10.38;;;17.40;99.90;;;18.94;89.72;101357.38;6299306;22;20018;-89
2021/07/17 02:12:16;;;;;;;25.17;9.68;;;17.50;99.90;;;18.91;89.43;101353.31;6300924;22;20008;-90
2021/07/17 02:14:42;;;;;;;21.05;9.50;;;17.40;99.90;;;18.89;89.62;101357.75;6327985;22;20079;-88
2021/07/17 02:17:09;;;;;;;24.08;10.57;;;17.40;99.90;;;18.88;89.52;101354.09;6301632;22;20022;-88
2021/07/17 02:19:35;;;;;;;22.48;10.73;;;17.40;99.90;;;18.89;89.17;101354.94;6300194;22;20007;-89
2021/07/17 02:22:03;;;;;;;21.73;9.50;;;17.40;99.90;;;18.85;89.32;101348.44;6300595;22;20006;-89
2021/07/17 02:24:29;;;;;;;24.42;10.25;;;17.40;99.90;;;18.83;89.01;101348.84;6301605;22;20004;-90
2021/07/17 02:26:55;;;;;;;27.20;11.15;;;17.30;99.90;;;18.80;89.16;101352.47;6299602;22;20022;-89
2021/07/17 02:29:21;;;;;;;21.50;9.77;;;17.30;99.90;;;18.81;88.72;101354.09;6279701;22;20003;-90
2021/07/17 02:31:48;;;;;;;26.13;10.55;;;17.30;99.90;;;18.81;88.74;101350.47;6300493;22;20014;-90
2021/07/17 02:34:15;;;;;;;25.23;10.07;;;17.30;99.90;;;18.78;88.93;101354.88;6292598;22;20050;-90
2021/07/17 02:36:41;;;;;;;20.52;9.98;;;17.30;99.90;;;18.77;89.04;101358.94;6298626;22;20060;-89
2021/07/17 02:39:10;;;;;;;21.02;9.95;;;17.30;99.90;;;18.76;89.10;101362.97;6296345;22;20098;-89
2021/07/17 02:41:38;;;;;;;24.55;10.43;;;17.30;99.90;;;18.76;89.27;101357.28;6298825;22;20394;-89
2021/07/17 02:44:05;;;;;;;21.63;10.68;;;17.30;99.90;;;18.75;89.36;101358.50;6296507;22;20000;-86
2021/07/17 02:46:32;;;;;;;20.45;11.15;;;17.30;99.90;;;18.72;89.19;101350.81;6301670;22;20083;-87
2021/07/17 02:49:09;;;;;;;24.27;11.50;;;17.20;99.90;;;18.72;89.04;101358.50;6300326;22;20031;-89
2021/07/17 02:51:35;;;;;;;22.30;9.48;;;17.30;99.90;;;18.72;88.96;101356.47;6303250;22;20078;-91
2021/07/17 02:54:01;;;;;;;22.88;9.93;;;17.20;99.90;;;18.72;88.71;101362.13;6299205;22;20345;-90
2021/07/17 02:56:27;;;;;;;24.63;10.02;;;17.20;99.90;;;18.73;88.39;101365.75;6298568;22;20007;-88
2021/07/17 02:58:55;;;;;;;27.40;10.50;;;17.20;99.90;;;18.69;88.26;101357.25;6300470;22;20004;-90
2021/07/17 03:01:21;;;;;;;23.20;9.65;;;17.20;99.90;;;18.70;87.97;101358.88;6294832;22;20533;-88
2021/07/17 03:03:47;;;;;;;20.08;8.73;;;17.20;99.90;;;18.71;87.92;101360.53;6292381;22;20004;-91
2021/07/17 03:06:14;;;;;;;24.40;9.05;;;17.20;99.90;;;18.71;87.66;101366.19;6291107;22;20038;-88
2021/07/17 03:08:40;;;;;;;22.35;9.88;;;17.20;99.90;;;18.69;87.54;101362.91;6299291;22;20038;-90
2021/07/17 03:11:07;;;;;;;18.90;9.02;;;17.20;99.90;;;18.69;87.82;101359.28;6287770;22;20461;-92
2021/07/17 03:13:33;;;;;;;19.63;9.07;;;17.20;99.90;;;18.70;87.44;101352.41;6279890;22;20004;-88
2021/07/17 03:15:59;;;;;;;19.45;9.43;;;17.20;99.90;;;18.69;87.32;101357.25;6279400;22;20027;-90
2021/07/17 03:18:25;;;;;;;20.58;9.30;;;17.20;99.90;;;18.71;87.24;101349.19;6281327;22;20108;-90
2021/07/17 03:20:51;;;;;;;17.85;9.38;;;17.20;99.90;;;18.71;87.72;101352.03;6281834;22;20000;-92
2021/07/17 03:23:17;;;;;;;15.35;9.35;;;17.20;99.90;;;18.69;87.38;101353.59;6281225;22;20062;-92
2021/07/17 03:25:43;;;;;;;17.95;8.43;;;17.20;99.90;;;18.69;87.55;101351.59;6280389;22;20487;-90
2021/07/17 03:28:08;;;;;;;20.63;9.63;;;17.20;99.90;;;18.69;87.66;101350.78;6279741;22;20007;-90
2021/07/17 03:30:35;;;;;;;22.17;9.52;;;17.20;99.90;;;18.66;87.93;101346.72;6278844;22;20007;-90
2021/07/17 03:33:02;;;;;;;19.08;8.88;;;17.10;99.90;;;18.68;87.82;101349.19;6280399;22;20401;-91
2021/07/17 03:35:28;;;;;;;18.38;8.85;;;17.20;99.90;;;18.67;87.65;101344.72;6279191;22;20087;-91
2021/07/17 03:37:56;;;;;;;19.10;9.18;;;17.20;99.90;;;18.68;87.83;101343.53;6280761;22;20098;-91
2021/07/17 03:40:22;;;;;;;15.90;8.27;;;17.10;99.90;;;18.69;87.86;101351.59;6281657;22;20013;-93
2021/07/17 03:42:48;;;;;;;20.17;10.10;;;17.20;99.90;;;18.69;87.66;101345.94;6281131;22;20003;-91
2021/07/17 03:45:14;;;;;;;16.40;8.73;;;17.20;99.90;;;18.68;87.78;101338.69;6282456;22;20003;-93
2021/07/17 03:47:40;;;;;;;18.15;8.77;;;17.20;99.90;;;18.69;87.98;101340.28;6291148;22;20004;-91
2021/07/17 03:50:07;;;;;;;21.50;8.65;;;17.20;99.90;;;18.69;88.20;101339.47;6294342;22;20082;-90
2021/07/17 03:52:33;;;;;;;23.10;10.05;;;17.20;99.90;;;18.68;88.46;101337.88;6295587;22;20008;-89
2021/07/17 03:54:59;;;;;;;15.95;9.32;;;17.20;99.90;;;18.67;88.29;101339.06;6281022;22;20340;-92
2021/07/17 03:57:25;;;;;;;21.55;8.60;;;17.20;99.90;;;18.67;88.31;101337.03;6281636;22;20018;-90
2021/07/17 03:59:50;;;;;;;14.80;8.77;;;17.10;99.90;;;18.68;88.78;101347.16;6280601;22;20004;-90
2021/07/17 04:02:16;;;;;;;17.73;9.52;;;17.10;99.90;;;18.69;88.85;101345.94;6282342;22;20000;-92
2021/07/17 04:04:43;;;;;;;21.33;9.65;;;17.20;99.90;;;18.70;88.91;101344.75;6281349;22;20060;-91
2021/07/17 04:07:10;;;;;;;15.90;8.85;;;17.20;99.90;;;18.70;88.82;101352.41;6282015;22;20505;-91
2021/07/17 04:09:36;;;;;;;23.80;9.68;;;17.20;99.90;;;18.72;88.94;101356.47;6284643;22;20319;-92
2021/07/17 04:12:03;;;;;;;18.98;9.48;;;17.20;99.90;;;18.72;88.93;101362.13;6284134;22;20008;-90
2021/07/17 04:14:29;;;;;;;18.60;9.27;;;17.20;99.90;;;18.75;88.82;101354.88;6281613;22;20048;-92
2021/07/17 04:16:55;;;;;;;18.75;8.68;;;17.30;99.90;;;18.74;89.03;101353.25;6282060;22;20443;-92
2021/07/17 04:19:20;;;;;;;16.75;9.05;;;17.20;99.90;;;18.77;89.12;101347.59;6281888;22;20008;-90
2021/07/17 04:21:46;;;;;;;19.13;9.27;;;17.30;99.90;;;18.79;88.87;101352.84;6282997;22;20413;-90
2021/07/17 04:24:12;;;;;;;25.35;10.48;;;17.30;99.90;;;18.76;88.84;101343.16;6309032;22;20441;-89
2021/07/17 04:26:39;;;;;;;25.88;10.18;;;17.30;99.90;;;18.82;88.52;101347.22;6284040;22;20004;-92
2021/07/17 04:29:06;;;;;;;20.85;10.48;;;17.30;99.90;;;18.83;88.45;101359.34;6285069;22;20263;-93
2021/07/17 04:31:34;;;;;;;24.23;10.15;;;17.40;99.90;;;18.82;88.69;101354.88;6283387;22;20004;-90
2021/07/17 04:34:00;;;;;;;21.70;10.40;;;17.30;99.90;;;18.84;88.60;101352.50;6283522;22;20015;-90
2021/07/17 04:36:26;;;;;;;22.75;10.82;;;17.30;99.90;;;18.83;88.90;101354.50;6281624;22;20070;-90
2021/07/17 04:38:51;;;;;;;17.25;9.82;;;17.30;99.90;;;18.84;89.30;101364.63;6280768;22;20337;-89
2021/07/17 04:41:17;;;;;;;23.80;11.13;;;17.40;99.90;;;18.85;89.76;101368.25;6279990;22;20032;-91
2021/07/17 04:43:43;;;;;;;21.67;10.70;;;17.30;99.90;;;18.85;89.61;101371.06;6279734;22;20003;-89
2021/07/17 04:46:10;;;;;;;19.80;10.48;;;17.30;99.90;;;18.85;89.67;101362.59;6290232;22;20018;-90
2021/07/17 04:48:37;;;;;;;16.58;10.00;;;17.30;99.90;;;18.86;89.65;101367.03;6290771;22;20008;-89
2021/07/17 04:51:03;;;;;;;16.52;9.40;;;17.30;99.90;;;18.87;89.96;101366.66;6291634;22;20015;-88
2021/07/17 04:53:28;;;;;;;18.80;10.10;;;17.40;99.90;;;18.89;89.84;101363.41;6293225;22;20008;-90
2021/07/17 04:55:55;;;;;;;19.35;9.10;;;17.40;99.90;;;18.89;90.39;101367.06;6292392;22;20007;-89
2021/07/17 04:58:22;;;;;;;22.10;10.20;;;17.40;99.90;;;18.89;90.30;101364.25;6292827;22;20004;-90
2021/07/17 05:00:48;;;;;;;25.17;10.80;;;17.40;99.90;;;18.92;89.96;101365.44;6295807;22;19999;-92
2021/07/17 05:03:14;;;;;;;16.95;9.57;;;17.40;99.90;;;18.94;89.96;101366.66;6300987;22;20047;-89
2021/07/17 05:05:40;;;;;;;26.75;11.93;;;17.40;99.90;;;18.93;90.33;101369.91;6302632;22;20055;-89
2021/07/17 05:08:07;;;;;;;19.83;10.93;;;17.40;99.90;;;18.96;89.69;101360.63;6302861;22;20015;-89
2021/07/17 05:10:33;;;;;;;24.58;10.70;;;17.40;99.90;;;18.99;89.13;101365.50;6299751;22;20018;-89
2021/07/17 05:13:13;;;;;;;24.83;11.68;;;17.40;99.90;;;19.03;88.84;101363.50;6300472;22;20007;-90
2021/07/17 05:15:41;;;;;;;25.67;11.20;;;17.50;99.90;;;19.08;88.69;101365.09;6300794;22;20019;-90
2021/07/17 05:18:08;;;;;;;24.23;10.55;;;17.50;99.90;;;19.15;88.63;101360.28;6296184;22;20076;-91
2021/07/17 05:20:34;;;;;;;27.17;10.90;;;17.50;99.90;;;19.19;88.36;101352.63;6293228;22;19987;-89
2021/07/17 05:23:01;;;;;;;24.65;10.95;;;17.60;99.90;;;19.29;87.65;101357.50;6291542;22;20014;-90
2021/07/17 05:25:27;;;;;;;23.90;11.02;;;17.70;99.90;;;19.31;87.55;101352.25;6292426;22;20007;-90
2021/07/17 05:27:53;;;;;;;20.88;10.02;;;17.70;99.90;;;19.32;87.57;101348.22;6295079;22;20098;-89
2021/07/17 05:30:20;;;;;;;23.05;10.63;;;17.70;99.90;;;19.38;86.90;101355.09;6294298;22;20062;-89
2021/07/17 05:32:47;;;;;;;26.30;10.38;;;17.80;99.90;;;19.39;86.73;101364.41;6284582;22;20060;-88
2021/07/17 05:35:13;;;;;;;19.10;11.13;;;17.70;99.90;;;19.33;87.03;101361.16;6288280;22;20008;-90
2021/07/17 05:37:39;;;;;;;25.02;11.40;;;17.80;99.90;;;19.33;86.92;101354.66;6287063;22;20015;-91
2021/07/17 05:40:08;;;;;;;25.17;9.93;;;17.80;99.90;;;19.32;86.52;101356.72;6284849;22;20071;-91
2021/07/17 05:42:33;;;;;;;24.58;10.15;;;17.80;99.90;;;19.35;86.62;101363.59;6286261;22;20091;-89
2021/07/17 05:44:59;;;;;;;21.20;9.60;;;17.80;99.90;;;19.34;86.70;101359.94;6284848;22;20003;-89
2021/07/17 05:47:26;;;;;;;23.92;10.93;;;17.80;99.90;;;19.36;86.89;101365.22;6286145;22;20045;-90
2021/07/17 05:49:57;;;;;;;23.08;10.50;;;17.80;99.90;;;19.36;87.15;101373.72;6284733;22;20015;-90
2021/07/17 05:52:23;;;;;;;24.15;10.60;;;17.80;99.90;;;19.36;86.34;101368.84;6282895;22;20014;-90
2021/07/17 05:54:50;;;;;;;28.17;10.48;;;17.80;99.90;;;19.35;85.91;101372.91;6291962;22;20012;-90
2021/07/17 05:57:16;;;;;;;27.98;10.85;;;17.80;99.90;;;19.35;85.98;101370.06;6295015;22;20018;-90
2021/07/17 05:59:42;;;;;;;25.17;11.10;;;17.80;99.90;;;19.33;85.81;101374.50;6293672;22;20067;-92
2021/07/17 06:02:08;;;;;;;28.25;10.43;;;17.80;99.90;;;19.27;86.12;101373.25;6291645;22;20008;-90
2021/07/17 06:04:34;;;;;;;21.73;10.02;;;17.70;99.90;;;19.27;85.75;101381.75;6294742;22;20011;-90
2021/07/17 06:07:01;;;;;;;20.88;9.90;;;17.70;99.90;;;19.23;85.10;101384.56;6295152;22;20079;-89
2021/07/17 06:09:27;;;;;;;22.55;11.10;;;17.70;99.90;;;19.25;85.12;101376.50;6295889;22;19992;-89
2021/07/17 06:11:53;;;;;;;26.13;10.32;;;17.70;99.90;;;19.32;84.87;101376.53;6302021;22;20006;-89
2021/07/17 06:14:20;;;;;;;27.98;10.68;;;17.70;99.90;;;19.37;84.91;101380.97;6291317;22;20012;-90
2021/07/17 06:16:46;;;;;;;23.85;9.57;;;17.80;99.90;;;19.43;84.73;101385.06;6295428;22;20007;-88
2021/07/17 06:19:12;;;;;;;21.20;9.55;;;17.80;99.90;;;19.44;84.58;101384.69;6295470;22;20008;-90
2021/07/17 06:21:39;;;;;;;21.13;9.45;;;17.80;99.90;;;19.44;84.92;101381.84;6296210;22;20063;-91
2021/07/17 06:24:06;;;;;;;29.95;10.95;;;17.80;99.90;;;19.46;85.20;101375.78;6298152;22;19991;-90
2021/07/17 06:26:33;;;;;;;27.83;10.32;;;17.80;99.90;;;19.50;84.65;101375.78;6299849;22;20004;-90
2021/07/17 06:28:59;;;;;;;25.90;10.65;;;17.90;99.90;;;19.52;84.84;101385.53;6299689;22;20000;-91
2021/07/17 06:31:25;;;;;;;24.05;10.05;;;17.90;99.90;;;19.63;84.46;101380.66;6297745;22;20004;-91
2021/07/17 06:33:51;;;;;;;25.73;9.70;;;18.00;99.90;;;19.61;84.75;101385.13;6295119;22;20077;-91
2021/07/17 06:36:18;;;;;;;23.05;9.80;;;18.00;99.90;;;19.68;84.54;101388.75;6294941;22;20004;-90
2021/07/17 06:38:45;;;;;;;24.23;10.27;;;18.00;99.90;;;19.76;84.07;101398.91;6294735;22;20020;-92
2021/07/17 06:41:11;;;;;;;26.00;9.68;;;18.10;99.90;;;19.83;84.42;101395.28;6293540;22;20000;-89
2021/07/17 06:43:37;;;;;;;25.42;10.55;;;18.20;99.90;;;19.81;83.99;101401.34;6320317;22;20003;-91
2021/07/17 06:46:05;;;;;;;21.27;9.90;;;18.20;99.90;;;19.81;83.74;101409.06;6293586;22;20015;-89
2021/07/17 06:48:32;;;;;;;25.92;10.32;;;18.10;99.90;;;19.78;83.72;101409.84;6292576;22;20011;-90
2021/07/17 06:50:59;;;;;;;22.35;10.40;;;18.10;99.90;;;19.61;84.61;101414.28;6299772;22;20073;-91
2021/07/17 06:53:25;;;;;;;29.30;10.52;;;18.10;99.90;;;19.60;85.09;101417.50;6293847;22;19987;-91
2021/07/17 06:55:53;;;;;;;22.42;10.00;;;18.00;99.90;;;19.55;85.49;101415.88;6296289;22;20014;-88
2021/07/17 06:58:19;;;;;;;23.42;10.30;;;17.90;99.90;;;19.53;85.78;101423.16;6294802;22;20392;-90
2021/07/17 07:00:45;;;;;;;28.98;11.32;;;17.90;99.90;;;19.43;86.14;101413.41;6298028;22;20138;-90
2021/07/17 07:03:11;;;;;;;24.00;10.25;;;17.90;99.90;;;19.50;86.31;101418.28;6301551;22;20463;-90
2021/07/17 07:05:37;;;;;;;37.10;11.00;;;17.90;99.90;;;19.57;86.17;101418.31;6301673;22;20030;-89
2021/07/17 07:08:03;;;;;;;21.17;9.55;;;17.90;99.90;;;19.64;85.79;101421.97;6301894;22;20011;-90
2021/07/17 07:10:29;;;;;;;27.65;10.60;;;18.00;99.90;;;19.68;85.73;101425.59;6301839;22;20003;-90
2021/07/17 07:12:55;;;;;;;24.55;10.60;;;18.00;99.90;;;19.70;86.11;101433.72;6300359;22;20004;-88
2021/07/17 07:15:25;;;;;;;31.00;10.48;;;18.00;99.90;;;19.65;86.24;101437.75;6292312;22;20085;-88
2021/07/17 07:17:52;;;;;;;27.05;10.35;;;18.00;99.90;;;19.64;86.45;101433.31;6296195;22;20004;-88
2021/07/17 07:20:18;;;;;;;28.17;10.07;;;18.00;99.90;;;19.60;86.38;101428.84;6242256;22;20070;-89
2021/07/17 07:22:45;;;;;;;24.23;10.18;;;17.90;99.90;;;19.64;86.73;101430.47;6290185;22;20007;-89
2021/07/17 07:25:12;;;;;;;23.98;9.65;;;18.00;99.90;;;19.66;86.69;101430.06;6294791;22;20015;-90
2021/07/17 07:27:38;;;;;;;21.15;9.30;;;18.00;99.90;;;19.65;86.89;101431.31;6324351;22;20016;-89
2021/07/17 07:30:06;;;;;;;22.90;10.07;;;18.00;99.90;;;19.68;87.02;101433.31;6288589;22;20142;-92
2021/07/17 07:32:33;;;;;;;26.38;10.50;;;18.00;99.90;;;19.62;86.71;101434.94;6280486;22;20011;-90
2021/07/17 07:34:59;;;;;;;30.40;11.10;;;18.00;99.90;;;19.56;87.01;101436.50;6281294;22;20003;-90
2021/07/17 07:37:27;;;;;;;27.02;10.30;;;18.00;99.90;;;19.59;87.10;101438.53;6285868;22;20014;-93
2021/07/17 07:39:54;;;;;;;31.40;10.60;;;18.00;99.90;;;19.64;86.70;101441.00;6284507;22;20010;-89
2021/07/17 07:42:21;;;;;;;26.40;10.57;;;18.00;99.90;;;19.74;86.69;101443.06;6285884;22;20008;-90
2021/07/17 07:44:47;;;;;;;21.30;9.05;;;18.00;99.90;;;19.80;86.47;101449.94;6283035;22;20053;-89
2021/07/17 07:47:13;;;;;;;22.38;9.80;;;18.10;99.90;;;19.84;86.48;101445.09;6286369;22;20007;-89
2021/07/17 07:49:39;;;;;;;28.92;10.05;;;18.20;99.90;;;19.86;86.17;101449.16;6285347;22;20004;-93
2021/07/17 07:52:05;;;;;;;33.40;10.63;;;18.20;99.90;;;19.84;86.67;101456.44;6282053;22;20376;-90
2021/07/17 07:54:31;;;;;;;31.27;10.90;;;18.20;99.90;;;19.80;86.68;101456.44;6285075;22;20433;-89
2021/07/17 07:56:59;;;;;;;22.85;9.63;;;18.20;99.90;;;19.90;86.35;101446.31;6282971;22;20007;-91
2021/07/17 07:59:25;;;;;;;28.42;10.13;;;18.30;99.90;;;20.02;86.00;101453.63;6281741;22;20007;-90
2021/07/17 08:01:51;;;;;;;25.08;10.77;;;18.40;99.90;;;20.17;85.44;101450.38;6281883;22;20106;-89
2021/07/17 08:04:17;;;;;;;21.27;9.27;;;18.40;99.90;;;20.33;85.21;101450.00;6280579;22;20451;-91
2021/07/17 08:06:43;;;;;;;20.63;9.50;;;18.60;99.90;;;20.48;84.39;101451.66;6283288;22;20008;-89
2021/07/17 08:09:09;;;;;;;24.02;9.40;;;18.70;99.90;;;20.61;83.90;101452.03;6283487;22;20397;-90
2021/07/17 08:11:35;;;;;;;21.58;8.73;;;18.80;99.90;;;20.74;83.32;101454.03;6282224;22;20011;-92
2021/07/17 08:14:10;;;;;;;21.27;9.45;;;18.90;99.90;;;20.81;83.18;101456.03;6283202;22;20489;-90
2021/07/17 08:16:36;;;;;;;22.95;8.65;;;19.00;99.90;;;21.03;82.10;101455.59;6288257;22;20050;-90
2021/07/17 08:19:04;;;;;;;19.30;8.52;;;19.20;99.90;;;21.17;81.17;101448.25;6280872;22;20012;-88
2021/07/17 08:21:32;;;;;;;21.00;8.02;;;19.30;99.90;;;21.27;80.34;101448.22;6279998;22;20099;-90
2021/07/17 08:23:59;;;;;;;18.45;7.93;;;19.40;99.90;;;21.27;80.04;101458.78;6280156;22;20422;-90
2021/07/17 08:26:25;;;;;;;19.08;7.25;;;19.40;99.90;;;21.20;79.85;101445.41;6279654;22;20345;-89
2021/07/17 08:28:51;;;;;;;16.13;8.07;;;19.40;99.90;;;21.21;79.93;101449.88;6280863;22;20008;-91
2021/07/17 08:31:17;;;;;;;19.80;6.85;;;19.40;99.90;;;21.38;79.46;101451.03;6281020;22;20378;-90
2021/07/17 08:33:43;;;;;;;17.85;6.57;;;19.50;99.90;;;21.59;78.89;101461.47;6281039;22;20007;-88
2021/07/17 08:36:09;;;;;;;20.15;6.85;;;19.70;99.90;;;21.55;78.38;101456.63;6282055;22;20007;-90
2021/07/17 08:38:35;;;;;;;13.48;6.05;;;19.70;99.90;;;21.56;78.08;101460.28;6282609;22;20008;-88
2021/07/17 08:41:11;;;;;;;15.00;5.95;;;19.70;99.90;;;21.50;78.24;101465.59;6282124;22;20003;-90
2021/07/17 08:43:39;;;;;;;17.15;6.82;;;19.70;99.90;;;21.58;78.30;101465.56;6280488;22;20031;-90
2021/07/17 08:46:06;;;;;;;20.35;7.57;;;19.80;99.90;;;21.44;78.77;101469.28;6285300;22;20004;-91
2021/07/17 08:48:37;;;;;;;17.73;6.78;;;19.70;99.90;;;21.62;78.70;101464.31;6285036;22;20015;-90
2021/07/17 08:51:06;;;;;;;16.55;6.40;;;19.80;99.90;;;21.63;78.06;101471.63;6284528;22;20090;-92
2021/07/17 08:53:35;;;;;;;17.17;6.28;;;19.80;99.90;;;21.80;77.55;101467.06;6286416;22;20012;-93
2021/07/17 08:56:01;;;;;;;15.25;6.05;;;19.90;99.90;;;22.30;75.92;101464.69;6286282;22;20004;-91
2021/07/17 08:58:28;;;;;;;20.80;6.28;;;20.20;99.90;;;22.84;74.63;101457.31;6285662;22;20061;-90
2021/07/17 09:00:54;;;;;;;13.15;5.30;;;20.70;99.90;;;23.44;71.08;101463.13;6287455;22;20004;-90
2021/07/17 09:03:20;;;;;;;11.05;5.25;;;21.20;99.90;;;23.86;69.27;101455.22;6288440;22;20008;-89
2021/07/17 09:05:53;;;;;;;14.50;5.38;;;21.60;99.90;;;23.97;68.90;101468.09;6289735;22;20014;-93
2021/07/17 09:08:22;;;;;;;13.45;4.90;;;21.80;99.90;;;24.42;67.03;101448.66;6315284;22;20167;-93
2021/07/17 09:10:54;;;;;;;17.73;5.82;;;22.20;99.90;;;25.33;64.42;101459.63;6293738;22;20007;-89
2021/07/17 09:13:29;;;;;;;11.68;5.20;;;23.00;99.90;;;26.35;59.97;101447.88;6281200;22;20350;-88
2021/07/17 09:16:18;;;;;;;14.07;4.68;;;23.80;99.90;;;27.16;57.00;101462.91;6305035;22;20043;-89
2021/07/17 09:18:53;;;;;;;18.33;5.85;;;24.60;99.90;;;27.53;55.30;101455.72;6282585;22;20164;-89
2021/07/17 09:21:28;;;;;;;17.50;5.28;;;25.00;99.90;;;27.63;54.95;101445.16;6287159;22;20063;-89
2021/07/17 09:24:18;;;;;;;13.20;5.10;;;25.10;99.90;;;27.39;54.65;101444.63;6281210;22;20476;-91
2021/07/17 09:27:02;;;;;;;12.65;4.40;;;25.20;99.90;;;28.01;54.11;101450.94;6283015;22;20004;-89
2021/07/17 09:29:39;;;;;;;15.25;4.90;;;25.40;99.90;;;28.65;52.66;101446.72;6282776;22;20430;-89
2021/07/17 09:32:06;;;;;;;14.68;5.43;;;26.00;99.90;;;28.89;52.28;101438.53;6280889;22;20031;-90
2021/07/17 09:34:36;;;;;;;15.45;5.10;;;26.30;99.90;;;28.94;49.18;101449.44;6284291;22;20086;-88
2021/07/17 09:37:10;;;;;;;12.07;4.57;;;26.50;99.90;;;28.99;51.09;101443.09;6283304;22;20014;-88
2021/07/17 09:39:41;;;;;;;13.27;4.90;;;26.40;99.90;;;28.93;51.60;101442.88;6309103;22;20023;-90
2021/07/17 09:42:13;;;;;;;11.48;5.10;;;26.50;99.90;;;29.39;49.90;101437.50;6283051;22;20062;-89
2021/07/17 09:44:42;;;;;;;10.80;4.47;;;26.60;99.90;;;29.35;49.57;101446.25;6290536;22;19999;-91
2021/07/17 09:47:22;;;;;;;9.52;4.10;;;26.60;99.90;;;29.31;48.21;101444.81;6297609;22;19992;-89
2021/07/17 09:49:50;;;;;;;11.57;4.35;;;26.50;99.90;;;29.35;49.43;101437.63;6307359;22;20014;-89
2021/07/17 09:52:23;;;;;;;11.35;4.85;;;26.60;99.90;;;29.18;49.08;101434.16;6285104;22;19999;-92
2021/07/17 09:55:16;;;;;;;10.35;3.80;;;26.50;99.90;;;29.11;49.90;101434.41;6283256;22;20007;-90
2021/07/17 09:57:43;;;;;;;13.40;4.72;;;26.50;99.90;;;29.25;50.47;101431.00;6262555;22;20386;-89
2021/07/17 10:00:24;;;;;;;9.45;4.20;;;26.60;99.90;;;29.40;49.45;101428.41;6283797;22;20004;-90
2021/07/17 10:02:52;;;;;;;12.57;4.82;;;26.90;99.90;;;29.53;48.04;101422.56;6286046;22;20008;-90
2021/07/17 10:05:19;;;;;;;11.70;4.35;;;27.00;99.90;;;29.66;48.74;101424.09;6286230;22;20004;-91
2021/07/17 10:07:46;;;;;;;12.57;4.93;;;27.20;99.90;;;29.45;48.90;101424.91;6286046;22;20290;-89
2021/07/17 10:10:12;;;;;;;13.93;4.25;;;27.20;99.90;;;29.99;48.76;101426.53;6290987;22;20002;-88
2021/07/17 10:12:42;;;;;;;10.10;4.45;;;27.30;99.90;;;30.14;48.17;101425.44;6290652;22;20082;-89
2021/07/17 10:15:16;;;;;;;9.52;3.97;;;27.30;99.90;;;30.49;48.34;101419.47;6292539;22;20008;-89
2021/07/17 10:17:49;;;;;;;11.63;3.80;;;27.60;99.90;;;30.91;46.27;101414.72;6291057;22;20011;-91
2021/07/17 10:20:16;;;;;;;12.77;4.28;;;28.10;99.90;;;31.00;47.00;101413.94;6287200;22;20019;-90
2021/07/17 10:23:12;;;;;;;12.13;3.90;;;28.30;99.90;;;31.18;46.75;101413.91;6287603;22;20003;-91
2021/07/17 10:25:41;;;;;;;11.45;4.20;;;28.50;99.90;;;31.10;47.98;101413.44;6267632;22;20008;-89
2021/07/17 10:28:10;;;;;;;11.02;3.95;;;28.50;99.90;;;30.63;45.63;101416.75;6287362;22;20007;-91
2021/07/17 10:30:36;;;;;;;10.98;3.55;;;28.40;94.60;;;30.90;46.14;101410.22;6308714;22;20004;-91
2021/07/17 10:33:02;;;;;;;12.30;4.22;;;28.30;96.60;;;30.70;46.29;101404.91;6283438;22;20008;-92
2021/07/17 10:35:29;;;;;;;7.72;3.28;;;28.50;95.30;;;30.90;45.81;101400.75;6284834;22;20015;-92
2021/07/17 16:40:32;;;;;;;4.95;1.45;;;25.80;89.80;;;27.53;46.24;101226.16;6266619;22;20019;-86
2021/07/17 16:42:59;;;;;;;3.10;1.42;;;25.70;86.60;;;27.43;45.94;101229.34;6307935;22;20012;-89
2021/07/17 16:45:25;;;;;;;3.47;1.63;;;25.70;85.20;;;27.36;46.44;101232.44;6300285;22;20083;-85
2021/07/17 16:47:54;;;;;;;4.65;1.52;;;25.60;85.60;;;27.23;47.33;101221.78;6290720;22;20015;-88
2021/07/17 16:50:20;;;;;;;4.30;1.70;;;25.50;88.30;;;27.21;48.27;101227.19;6280585;22;20000;-90
2021/07/17 16:52:50;;;;;;;3.72;1.40;;;25.50;90.90;;;27.12;49.01;101221.34;6282382;22;20027;-88
2021/07/17 16:55:16;;;;;;;6.07;1.73;;;25.40;91.70;;;26.86;49.00;101216.03;6280569;22;20023;-89
2021/07/17 16:57:45;;;;;;;6.00;1.75;;;25.30;91.10;;;26.85;49.74;101225.91;6278991;22;20030;-88
2021/07/17 17:00:14;;;;;;;6.22;1.70;;;25.30;92.70;;;26.78;50.11;101226.88;6278925;22;20011;-87
2021/07/17 17:02:40;;;;;;;3.72;1.50;;;25.10;93.40;;;26.65;51.16;101220.34;6282571;22;20038;-89
2021/07/17 17:05:13;;;;;;;6.55;1.92;;;25.00;94.70;;;26.57;51.45;101224.66;6284212;22;20007;-88
2021/07/17 17:07:38;;;;;;;3.60;1.58;;;24.90;95.80;;;26.43;51.45;101222.22;6279550;22;20003;-88
2021/07/17 17:10:07;;;;;;;3.22;1.58;;;24.80;95.70;;;26.36;50.82;101216.72;6276139;22;20201;-87
2021/07/17 17:12:36;;;;;;;4.07;1.70;;;24.80;95.10;;;26.31;50.45;101229.53;6277690;22;20008;-86
2021/07/17 17:15:10;;;;;;;3.47;1.63;;;24.80;94.80;;;26.26;49.83;101230.09;6277307;22;20004;-86
2021/07/17 17:17:39;;;;;;;4.50;1.20;;;24.70;94.20;;;26.15;49.45;101221.75;6279211;22;20122;-86
2021/07/17 17:20:09;;;;;;;3.97;1.20;;;24.60;93.20;;;26.14;49.45;101225.88;6278702;22;20012;-86
2021/07/17 17:22:37;;;;;;;4.88;1.60;;;24.60;93.50;;;26.08;49.52;101224.81;6278169;22;20008;-88
2021/07/17 17:25:05;;;;;;;6.72;1.55;;;24.50;93.30;;;26.13;49.73;101226.34;6280315;22;20004;-88
2021/07/17 17:27:32;;;;;;;4.82;1.63;;;24.50;94.40;;;26.05;49.60;101225.72;6302670;22;20004;-89
2021/07/17 17:29:58;;;;;;;4.35;1.20;;;24.40;93.80;;;25.98;48.95;101230.81;6277884;22;20000;-89
2021/07/17 17:32:24;;;;;;;2.95;1.23;;;24.40;92.80;;;25.91;49.11;101228.94;6278000;22;20010;-88
2021/07/17 17:34:49;;;;;;;4.30;1.30;;;24.40;93.60;;;25.86;50.26;101225.84;6279601;22;20042;-88
2021/07/17 17:37:18;;;;;;;3.28;1.27;;;24.30;94.70;;;25.83;51.40;101233.28;6277553;22;20012;-88
2021/07/17 17:39:44;;;;;;;3.50;1.55;;;24.30;96.80;;;25.73;51.49;101220.03;6276055;22;20092;-89
2021/07/17 17:42:13;;;;;;;4.18;1.58;;;24.20;96.50;;;25.71;51.30;101233.19;6276451;22;20278;-90
2021/07/17 17:44:40;;;;;;;4.25;1.20;;;24.20;96.90;;;25.63;52.02;101238.28;6277032;22;20014;-89
2021/07/17 17:47:06;;;;;;;2.22;1.20;;;24.10;97.90;;;25.52;51.94;101234.91;6277887;22;20006;-91
2021/07/17 17:49:37;;;;;;;4.25;1.52;;;24.00;98.10;;;25.46;52.95;101243.16;6277236;22;20011;-90
2021/07/17 17:52:10;;;;;;;2.25;1.20;;;24.00;99.40;;;25.37;52.56;101231.56;6275776;22;20015;-89
2021/07/17 17:54:42;;;;;;;6.35;1.13;;;23.90;98.90;;;25.32;52.85;101234.97;6277648;22;20007;-88
2021/07/17 17:57:10;;;;;;;3.30;1.70;;;23.80;99.60;;;25.23;53.42;101237.63;6277613;22;20007;-89
2021/07/17 17:59:40;;;;;;;4.07;1.25;;;23.70;99.90;;;25.14;53.52;101240.31;6277154;22;20026;-88
2021/07/17 18:02:07;;;;;;;4.53;1.38;;;23.60;99.90;;;25.06;54.00;101236.78;6276921;22;20036;-88
2021/07/17 18:04:34;;;;;;;4.13;1.42;;;23.50;99.90;;;24.96;54.13;101243.56;6277623;22;20233;-88
2021/07/17 18:07:00;;;;;;;5.25;1.30;;;23.50;99.90;;;24.90;54.13;101248.19;6276990;22;20116;-88
2021/07/17 18:09:27;;;;;;;3.90;1.15;;;23.40;99.90;;;24.85;54.26;101257.25;6303273;22;20011;-86
2021/07/17 18:11:53;;;;;;;3.33;1.00;;;23.30;99.90;;;24.81;54.58;101244.28;6277102;22;20014;-90
2021/07/17 18:14:20;;;;;;;2.15;1.30;;;23.30;99.90;;;24.74;55.00;101250.16;6301508;22;20004;-90
2021/07/17 18:16:48;;;;;;;4.15;1.35;;;23.20;99.90;;;24.69;54.62;101259.25;6276862;22;20014;-88